Have a Safe July 4th! 

Flight Track Log - Related Links

Times and Time Zones

All times are in EDT time to prevent confusion due to time zone crossing. See the AAL22 flight status page for this flight to view local times or setup timezone preferences in your user account.

Time Position Orientation Groundspeed Altitude Reporting Facility
EDT Latitude Longitude Course Direction KTS MPH feet Rate Location/Type
Sun 06:06:15 PM 33.9619 -118.3796 246° West  Level FlightAware Approximate
Sun 06:07:15 PM 34.0218 -118.2543 243° Southwest  Level FlightAware Approximate
Sun 06:08:34 PM 33.9139 -118.5092 203° Southwest 188 216 3,200  Level Los Angeles Center
Sun 06:09:34 PM 33.8572 -118.5375 84° East 221 254 6,300 2,650 Climbing Los Angeles Center
Sun 06:10:34 PM 33.8625 -118.4778 28° Northeast 101 116 8,500 2,250 Climbing Los Angeles Center
Sun 06:11:34 PM 33.9342 -118.4322 51° Northeast 117 135 10,800 2,300 Climbing Los Angeles Center
Sun 06:12:34 PM 33.9858 -118.3558 58° Northeast 224 258 13,100 1,500 Climbing Los Angeles Center
Sun 06:13:34 PM 34.0333 -118.2644 56° Northeast 268 308 13,800 1,200 Climbing Los Angeles Center
Sun 06:14:34 PM 34.1044 -118.1358 55° Northeast 365 420 15,500 2,000 Climbing Los Angeles Center
Sun 06:15:34 PM 34.1711 -118.0194 55° Northeast 397 457 17,800 2,150 Climbing Los Angeles Center
Sun 06:16:34 PM 34.2417 -117.8953 57° Northeast 419 482 19,800 1,850 Climbing Los Angeles Center
Sun 06:17:34 PM 34.2997 -117.7858 56° Northeast 432 497 21,500 1,700 Climbing Los Angeles Center
Sun 06:18:34 PM 34.3703 -117.6589 56° Northeast 438 504 23,200 1,750 Climbing Los Angeles Center
Sun 06:19:34 PM 34.4428 -117.5292 57° Northeast 450 518 25,000 1,636 Climbing Los Angeles Center
Sun 06:20:35 PM 34.5150 -117.3944 56° Northeast 464 534 26,500 1,650 Climbing Los Angeles Center
Sun 06:21:34 PM 34.5894 -117.2592 56° Northeast 470 541 28,300 2,017 Climbing Los Angeles Center
Sun 06:22:34 PM 34.6700 -117.1114 56° Northeast 476 548 30,500 1,850 Climbing Los Angeles Center
Sun 06:23:34 PM 34.7419 -116.9808 56° Northeast 476 548 32,000 1,450 Climbing Los Angeles Center
Sun 06:24:34 PM 34.8161 -116.8475 57° Northeast 476 548 33,400 1,350 Climbing Los Angeles Center
Sun 06:25:34 PM 34.8878 -116.7139 55° Northeast 476 548 34,700 1,240 Climbing Los Angeles Center
Sun 06:26:35 PM 34.9611 -116.5850 48° Northeast 476 548 35,900 1,100 Climbing Los Angeles Center
Sun 06:27:34 PM 35.0492 -116.4664 46° Northeast 471 542 36,900 555 Climbing Los Angeles Center
Sun 06:28:34 PM 35.1392 -116.3525 45° Northeast 461 531 37,000 50 Climbing Los Angeles Center
Sun 06:29:34 PM 35.2333 -116.2383 46° Northeast 461 531 37,000  Level Los Angeles Center
Sun 06:30:34 PM 35.3231 -116.1239 46° Northeast 467 537 37,000  Level Los Angeles Center
Sun 06:31:34 PM 35.4128 -116.0092 46° Northeast 467 537 37,000  Level Los Angeles Center
Sun 06:32:34 PM 35.5025 -115.8942 46° Northeast 467 537 37,000  Level Los Angeles Center
Sun 06:33:34 PM 35.5919 -115.7792 46° Northeast 467 537 37,000  Level Los Angeles Center
Sun 06:34:35 PM 35.6833 -115.6611 51° Northeast 467 537 37,000  Level Los Angeles Center
Sun 06:35:34 PM 35.7661 -115.5350 52° Northeast 467 537 37,000  Level Los Angeles Center
Sun 06:36:34 PM 35.8469 -115.4089 53° Northeast 467 537 37,000  Level Los Angeles Center
Sun 06:37:34 PM 35.9253 -115.2800 52° Northeast 467 537 37,000  Level Los Angeles Center
Sun 06:38:34 PM 36.0078 -115.1508 52° Northeast 467 537 37,000  Level Los Angeles Center
Sun 06:39:34 PM 36.0881 -115.0239 53° Northeast 467 537 37,000  Level Los Angeles Center
Sun 06:40:34 PM 36.1683 -114.8917 52° Northeast 467 537 37,000  Level Los Angeles Center
Sun 06:41:34 PM 36.2461 -114.7669 53° Northeast 467 537 37,000  Level Los Angeles Center
Sun 06:42:34 PM 36.3261 -114.6367 54° Northeast 467 537 37,000  Level Los Angeles Center
Sun 06:43:34 PM 36.4036 -114.5061 53° Northeast 467 537 37,000  Level Los Angeles Center
Sun 06:44:34 PM 36.4831 -114.3756 54° Northeast 467 537 37,000  Level Los Angeles Center
Sun 06:45:34 PM 36.5606 -114.2444 53° Northeast 467 537 37,000  Level Los Angeles Center
Sun 06:46:34 PM 36.6378 -114.1158 54° Northeast 467 537 37,000  Level Los Angeles Center
Sun 06:47:34 PM 36.7147 -113.9819 54° Northeast 467 537 37,000  Level Los Angeles Center
Sun 06:48:36 PM 36.7917 -113.8500 53° Northeast 467 537 37,000  Level Los Angeles Center
Sun 06:49:34 PM 36.8706 -113.7206 54° Northeast 467 537 37,000  Level Los Angeles Center
Sun 06:50:34 PM 36.9469 -113.5883 54° Northeast 467 537 37,000  Level Los Angeles Center
Sun 06:51:34 PM 37.0233 -113.4561 54° Northeast 467 537 37,000  Level Los Angeles Center
Sun 06:53:37 PM 37.1822 -113.1794 54° Northeast 474 545 37,000  Level Salt Lake Center
Sun 06:54:39 PM 37.2608 -113.0442 54° Northeast 474 545 37,000  Level Salt Lake Center
Sun 06:55:41 PM 37.3383 -112.9094 54° Northeast 473 544 37,000  Level Salt Lake Center
Sun 06:56:42 PM 37.4153 -112.7744 54° Northeast 474 545 37,000  Level Salt Lake Center
Sun 06:57:44 PM 37.4925 -112.6403 53° Northeast 476 548 37,000  Level Salt Lake Center
Sun 06:58:46 PM 37.5711 -112.5069 54° Northeast 475 547 37,000  Level Salt Lake Center
Sun 06:59:47 PM 37.6492 -112.3700 54° Northeast 476 548 37,000  Level Salt Lake Center
Sun 07:00:49 PM 37.7278 -112.2331 54° Northeast 476 548 37,000  Level Salt Lake Center
Sun 07:01:51 PM 37.8069 -112.0969 54° Northeast 475 547 37,000  Level Salt Lake Center
Sun 07:02:52 PM 37.8864 -111.9603 54° Northeast 476 548 37,000  Level Salt Lake Center
Sun 07:03:54 PM 37.9656 -111.8236 54° Northeast 475 547 37,000  Level Salt Lake Center
Sun 07:04:56 PM 38.0447 -111.6867 54° Northeast 475 547 37,000  Level Salt Lake Center
Sun 07:05:57 PM 38.1400 -111.5219 54° Northeast 475 547 37,000  Level Salt Lake Center
Sun 07:06:59 PM 38.2186 -111.3839 54° Northeast 474 545 37,000  Level Salt Lake Center
Sun 07:08:01 PM 38.2961 -111.2461 54° Northeast 473 544 37,000  Level Salt Lake Center
Sun 07:09:03 PM 38.3736 -111.1075 54° Northeast 473 544 37,000  Level Salt Lake Center
Sun 07:10:05 PM 38.4517 -110.9692 55° Northeast 473 544 37,000  Level Salt Lake Center
Sun 07:11:06 PM 38.5294 -110.8278 55° Northeast 472 543 37,000  Level Salt Lake Center
Sun 07:12:08 PM 38.6022 -110.6969 55° Northeast 471 542 37,000  Level Salt Lake Center
Sun 07:13:10 PM 38.6872 -110.5433 55° Northeast 473 544 37,000  Level Salt Lake Center
Sun 07:14:12 PM 38.7589 -110.4108 55° Northeast 473 544 37,000  Level Salt Lake Center
Sun 07:15:13 PM 38.8439 -110.2575 55° Northeast 473 544 37,000  Level Salt Lake Center
Sun 07:16:15 PM 38.9158 -110.1258 55° Northeast 471 542 37,000  Level Salt Lake Center
Sun 07:17:17 PM 38.9875 -109.9922 55° Northeast 473 544 37,000  Level Salt Lake Center
Sun 07:18:19 PM 39.0708 -109.8378 55° Northeast 471 542 37,000  Level Salt Lake Center
Sun 07:19:21 PM 39.1428 -109.7039 55° Northeast 473 544 37,000  Level Salt Lake Center
Sun 07:20:22 PM 39.2258 -109.5483 56° Northeast 472 543 37,000  Level Salt Lake Center
Sun 07:21:24 PM 39.2969 -109.4142 56° Northeast 472 543 37,000  Level Salt Lake Center
Sun 07:22:26 PM 39.3794 -109.2578 56° Northeast 472 543 37,000  Level Salt Lake Center
Sun 07:23:28 PM 39.4497 -109.1244 56° Northeast 470 541 37,000  Level Salt Lake Center
Sun 07:24:30 PM 39.5314 -108.9697 56° Northeast 468 539 37,000  Level Salt Lake Center
Sun 07:25:32 PM 39.5997 -108.8378 55° Northeast 466 536 37,000  Level Salt Lake Center
Sun 07:26:33 PM 39.6806 -108.6853 56° Northeast 468 539 37,000  Level Salt Lake Center
Sun 07:27:44 PM 39.7606 -108.5317 56° Northeast 481 554 37,000  Level Denver Center
Sun 07:28:44 PM 39.8406 -108.3772 56° Northeast 474 545 37,000  Level Denver Center
Sun 07:29:44 PM 39.9114 -108.2383 56° Northeast 474 545 37,000  Level Denver Center
Sun 07:30:44 PM 39.9781 -108.1100 56° Northeast 474 545 37,000  Level Denver Center
Sun 07:31:44 PM 40.0508 -107.9681 70° East 474 545 37,000  Level Denver Center
Sun 07:32:44 PM 40.1011 -107.7872 73° East 474 545 37,000  Level Denver Center
Sun 07:33:44 PM 40.1403 -107.6222 74° East 474 545 37,000  Level Denver Center
Sun 07:34:44 PM 40.1731 -107.4706 73° East 480 552 37,000  Level Denver Center
Sun 07:35:44 PM 40.2119 -107.3000 74° East 474 545 37,000  Level Denver Center
Sun 07:36:44 PM 40.2506 -107.1181 74° East 474 545 37,000  Level Denver Center
Sun 07:37:44 PM 40.2869 -106.9525 73° East 474 545 37,000  Level Denver Center
Sun 07:38:44 PM 40.3250 -106.7892 73° East 467 537 37,000  Level Denver Center
Sun 07:39:44 PM 40.3586 -106.6450 75° East 467 537 37,000  Level Denver Center
Sun 07:40:44 PM 40.3964 -106.4569 73° East 467 537 37,000  Level Denver Center
Sun 07:41:44 PM 40.4358 -106.2906 75° East 473 544 37,000  Level Denver Center
Sun 07:42:44 PM 40.4689 -106.1239 75° East 468 539 37,000  Level Denver Center
Sun 07:43:44 PM 40.4994 -105.9736 73° East 468 539 37,000  Level Denver Center
Sun 07:44:44 PM 40.5383 -105.8039 75° East 474 545 37,000  Level Denver Center
Sun 07:45:44 PM 40.5728 -105.6342 74° East 474 545 37,000  Level Denver Center
Sun 07:46:44 PM 40.6089 -105.4639 74° East 474 545 37,000  Level Denver Center
Sun 07:47:44 PM 40.6447 -105.2939 75° East 474 545 37,000  Level Denver Center
Sun 07:48:44 PM 40.6825 -105.1097 74° East 474 545 37,000  Level Denver Center
Sun 07:49:44 PM 40.7178 -104.9419 75° East 474 545 37,000  Level Denver Center
Sun 07:50:44 PM 40.7531 -104.7711 75° East 474 545 37,000  Level Denver Center
Sun 07:51:44 PM 40.7858 -104.6056 75° East 468 539 37,000  Level Denver Center
Sun 07:52:44 PM 40.8206 -104.4344 76° East 473 544 37,000  Level Denver Center
Sun 07:53:44 PM 40.8528 -104.2689 75° East 473 544 37,000  Level Denver Center
Sun 07:54:44 PM 40.8872 -104.1003 76° East 473 544 37,000  Level Denver Center
Sun 07:55:44 PM 40.9172 -103.9453 75° East 473 544 37,000  Level Denver Center
Sun 07:56:44 PM 40.9508 -103.7789 78° East 468 539 37,000  Level Denver Center
Sun 07:57:44 PM 40.9819 -103.5906 76° East 468 539 37,000  Level Denver Center
Sun 07:58:44 PM 41.0150 -103.4186 77° East 477 549 37,000  Level Denver Center
Sun 07:59:44 PM 41.0422 -103.2658 77° East 465 535 37,000  Level Denver Center
Sun 08:00:44 PM 41.0744 -103.0853 76° East 465 535 37,000  Level Denver Center
Sun 08:01:44 PM 41.1033 -102.9347 74° East 465 535 37,000  Level Denver Center
Sun 08:02:44 PM 41.1414 -102.7536 72° East 465 535 37,000  Level Denver Center
Sun 08:03:44 PM 41.1800 -102.5942 75° East 460 529 37,000  Level Denver Center
Sun 08:04:44 PM 41.2103 -102.4431 73° East 460 529 37,000  Level Denver Center
Sun 08:05:44 PM 41.2483 -102.2778 75° East 460 529 37,000  Level Denver Center
Sun 08:06:44 PM 41.2853 -102.0958 75° East 466 536 37,000  Level Denver Center
Sun 08:07:44 PM 41.3186 -101.9303 75° East 466 536 37,000  Level Denver Center
Sun 08:08:44 PM 41.3517 -101.7647 75° East 466 536 37,000  Level Denver Center
Sun 08:09:44 PM 41.3828 -101.6103 74° East 466 536 37,000  Level Denver Center
Sun 08:10:44 PM 41.4208 -101.4275 75° East 461 531 37,000  Level Denver Center
Sun 08:11:44 PM 41.4550 -101.2586 76° East 461 531 37,000  Level Denver Center
Sun 08:12:44 PM 41.4869 -101.0922 74° East 461 531 37,000  Level Denver Center
Sun 08:13:44 PM 41.5194 -100.9397 76° East 461 531 37,000  Level Denver Center
Sun 08:14:44 PM 41.5511 -100.7733 75° East 461 531 37,000  Level Denver Center
Sun 08:15:44 PM 41.5875 -100.5867 76° East 461 531 37,000  Level Denver Center
Sun 08:16:44 PM 41.6186 -100.4200 76° East 467 537 37,000  Level Denver Center
Sun 08:17:44 PM 41.6461 -100.2672 75° East 467 537 37,000  Level Denver Center
Sun 08:18:44 PM 41.6786 -100.1000 76° East 461 531 37,000  Level Denver Center
Sun 08:19:44 PM 41.7142 -99.9128 76° East 466 536 37,000  Level Denver Center
Sun 08:20:44 PM 41.7461 -99.7422 76° East 459 528 37,000  Level Denver Center
Sun 08:21:44 PM 41.7747 -99.5889 76° East 465 535 37,000  Level Denver Center
Sun 08:23:20 PM 41.8228 -99.3219 76° East 459 528 37,000  Level Minneapolis Center
Sun 08:24:20 PM 41.8547 -99.1522 76° East 459 528 37,000  Level Minneapolis Center
Sun 08:25:21 PM 41.8861 -98.9822 77° East 469 540 37,000  Level Minneapolis Center
Sun 08:26:20 PM 41.9153 -98.8175 76° East 464 534 37,000  Level Minneapolis Center
Sun 08:27:20 PM 41.9464 -98.6472 78° East 464 534 37,000  Level Minneapolis Center
Sun 08:28:20 PM 41.9731 -98.4794 76° East 470 541 37,000  Level Minneapolis Center
Sun 08:29:20 PM 42.0036 -98.3086 78° East 464 534 37,000  Level Minneapolis Center
Sun 08:30:21 PM 42.0325 -98.1211 77° East 469 540 37,000  Level Minneapolis Center
Sun 08:31:21 PM 42.0603 -97.9556 77° East 464 534 37,000  Level Minneapolis Center
Sun 08:32:20 PM 42.0900 -97.7872 77° East 464 534 37,000  Level Minneapolis Center
Sun 08:33:20 PM 42.1172 -97.6214 77° East 464 534 37,000  Level Minneapolis Center
Sun 08:34:20 PM 42.1464 -97.4525 78° East 464 534 37,000  Level Minneapolis Center
Sun 08:35:20 PM 42.1733 -97.2836 77° East 464 534 37,000  Level Minneapolis Center
Sun 08:36:20 PM 42.1969 -97.1394 78° East 464 534 37,000  Level Minneapolis Center
Sun 08:37:21 PM 42.2233 -96.9731 77° East 459 528 37,000  Level Minneapolis Center
Sun 08:38:21 PM 42.2514 -96.8064 78° East 454 522 37,000  Level Minneapolis Center
Sun 08:39:20 PM 42.2772 -96.6425 79° East 449 517 37,000  Level Minneapolis Center
Sun 08:40:20 PM 42.3006 -96.4811 78° East 443 510 37,000  Level Minneapolis Center
Sun 08:41:21 PM 42.3258 -96.3139 77° East 449 517 37,000  Level Minneapolis Center
Sun 08:42:21 PM 42.3531 -96.1497 79° East 449 517 37,000  Level Minneapolis Center
Sun 08:43:21 PM 42.3778 -95.9794 79° East 449 517 37,000 200 Level Minneapolis Center
Sun 08:44:21 PM 42.4025 -95.8064 79° East 455 524 37,400 555 Climbing Minneapolis Center
Sun 08:45:20 PM 42.4269 -95.6358 79° East 462 532 38,100 807 Climbing Minneapolis Center
Sun 08:46:20 PM 42.4511 -95.4597 78° East 469 540 39,000 446 Climbing Minneapolis Center
Sun 08:47:21 PM 42.4769 -95.2892 80° East 464 534 39,000 50 Level Minneapolis Center
Sun 08:48:21 PM 42.4983 -95.1181 78° East 459 528 39,100  Climbing Minneapolis Center
Sun 08:49:21 PM 42.5236 -94.9528 79° East 454 522 39,000 -50 Descending Minneapolis Center
Sun 08:50:21 PM 42.5467 -94.7872 80° East 449 517 39,000  Level Minneapolis Center
Sun 08:51:21 PM 42.5694 -94.6189 82° East 449 517 39,000  Level Minneapolis Center
Sun 08:52:21 PM 42.5878 -94.4333 81° East 449 517 39,000  Level Minneapolis Center
Sun 08:53:21 PM 42.6081 -94.2589 89° East 449 517 39,000  Level Minneapolis Center
Sun 08:54:20 PM 42.6092 -94.0814 89° East 459 528 39,000  Level Minneapolis Center
Sun 08:55:20 PM 42.6103 -93.8981 90° East 470 541 39,000  Level Minneapolis Center
Sun 08:57:15 PM 42.6094 -93.5511 89° East 494 568 39,000  Level Chicago Center
Sun 08:58:15 PM 42.6119 -93.3650 89° East 494 568 39,000  Level Chicago Center
Sun 08:59:15 PM 42.6139 -93.1844 90° East 494 568 39,000  Level Chicago Center
Sun 09:00:15 PM 42.6136 -93.0008 90° East 489 563 39,000  Level Chicago Center
Sun 09:01:15 PM 42.6133 -92.8147 89° East 489 563 39,000  Level Chicago Center
Sun 09:02:15 PM 42.6144 -92.6342 91° East 484 557 39,000  Level Chicago Center
Sun 09:03:15 PM 42.6131 -92.4506 91° East 484 557 39,000  Level Chicago Center
Sun 09:04:15 PM 42.6117 -92.2669 91° East 484 557 39,000  Level Chicago Center
Sun 09:05:15 PM 42.6100 -92.0836 90° East 479 551 39,000  Level Chicago Center
Sun 09:06:15 PM 42.6100 -91.9031 91° East 479 551 39,000  Level Chicago Center
Sun 09:07:15 PM 42.6072 -91.7392 91° East 479 551 39,000  Level Chicago Center
Sun 09:08:15 PM 42.6044 -91.5586 90° East 479 551 39,000  Level Chicago Center
Sun 09:09:15 PM 42.6036 -91.3781 91° East 479 551 39,000  Level Chicago Center
Sun 09:10:15 PM 42.6003 -91.1975 91° East 479 551 39,000  Level Chicago Center
Sun 09:11:15 PM 42.5969 -91.0197 92° East 479 551 39,000  Level Chicago Center
Sun 09:12:15 PM 42.5931 -90.8389 91° East 479 551 39,000  Level Chicago Center
Sun 09:13:15 PM 42.5911 -90.6614 91° East 479 551 39,000  Level Chicago Center
Sun 09:14:15 PM 42.5889 -90.4611 92° East 479 551 39,000  Level Chicago Center
Sun 09:15:15 PM 42.5844 -90.2833 93° East 479 551 39,000  Level Chicago Center
Sun 09:16:15 PM 42.5772 -90.1028 91° East 479 551 39,000  Level Chicago Center
Sun 09:17:15 PM 42.5742 -89.9222 94° East 479 551 39,000  Level Chicago Center
Sun 09:18:15 PM 42.5644 -89.7444 92° East 474 545 39,000  Level Chicago Center
Sun 09:19:15 PM 42.5586 -89.5669 93° East 474 545 39,000  Level Chicago Center
Sun 09:20:15 PM 42.5528 -89.3922 92° East 479 551 39,000  Level Chicago Center
Sun 09:21:15 PM 42.5483 -89.2089 94° East 479 551 39,000  Level Chicago Center
Sun 09:22:15 PM 42.5397 -89.0314 93° East 474 545 39,000  Level Chicago Center
Sun 09:23:15 PM 42.5328 -88.8539 93° East 474 545 39,000  Level Chicago Center
Sun 09:24:15 PM 42.5256 -88.6708 92° East 480 552 39,000  Level Chicago Center
Sun 09:25:15 PM 42.5203 -88.4933 93° East 480 552 39,000  Level Chicago Center
Sun 09:26:15 PM 42.5125 -88.3106 93° East 486 559 39,000  Level Chicago Center
Sun 09:27:15 PM 42.5044 -88.1303 93° East 481 554 39,000  Level Chicago Center
Sun 09:28:15 PM 42.4983 -87.9558 89° East 478 550 39,000  Level Chicago Center
Sun 09:29:15 PM 42.5000 -87.7700 89° East 478 550 39,000  Level Chicago Center
Sun 09:30:15 PM 42.5017 -87.5981 90° East 470 541 39,000  Level Chicago Center
Sun 09:31:15 PM 42.5011 -87.4208 90° East 465 535 39,000  Level Chicago Center
Sun 09:32:15 PM 42.5000 -87.2406 91° East 465 535 39,000  Level Chicago Center
Sun 09:33:15 PM 42.4986 -87.0603 90° East 470 541 39,000  Level Chicago Center
Sun 09:34:15 PM 42.4992 -86.8828 92° East 475 547 39,000  Level Chicago Center
Sun 09:35:15 PM 42.4953 -86.7056 91° East 475 547 39,000  Level Chicago Center
Sun 09:36:15 PM 42.4931 -86.5256 92° East 475 547 39,000  Level Chicago Center
Sun 09:37:15 PM 42.4883 -86.3483 91° East 475 547 39,000  Level Chicago Center
Sun 09:38:15 PM 42.4856 -86.1653 91° East 475 547 39,000  Level Chicago Center
Sun 09:39:15 PM 42.4828 -85.9881 91° East 475 547 39,000  Level Chicago Center
Sun 09:40:15 PM 42.4792 -85.8053 92° East 475 547 39,000  Level Chicago Center
Sun 09:41:15 PM 42.4736 -85.6281 92° East 475 547 39,000  Level Chicago Center
Sun 09:43:17 PM 42.4653 -85.2589 91° East 467 537 39,000  Level Cleveland Center
Sun 09:44:17 PM 42.4619 -85.0786 92° East 473 544 39,000  Level Cleveland Center
Sun 09:45:17 PM 42.4583 -84.9008 93° East 473 544 39,000  Level Cleveland Center
Sun 09:46:17 PM 42.4522 -84.7261 91° East 478 550 39,000  Level Cleveland Center
Sun 09:47:17 PM 42.4503 -84.5428 95° East 478 550 39,000  Level Cleveland Center
Sun 09:48:17 PM 42.4397 -84.3647 95° East 478 550 39,000  Level Cleveland Center
Sun 09:49:17 PM 42.4286 -84.1869 94° East 473 544 39,000  Level Cleveland Center
Sun 09:50:17 PM 42.4211 -84.0317 95° East 473 544 39,000  Level Cleveland Center
Sun 09:51:17 PM 42.4094 -83.8539 95° East 473 544 39,000  Level Cleveland Center
Sun 09:52:17 PM 42.3978 -83.6789 94° East 467 537 39,000  Level Cleveland Center
Sun 09:53:17 PM 42.3881 -83.4900 95° East 467 537 39,000  Level Cleveland Center
Sun 09:54:17 PM 42.3756 -83.3125 95° East 467 537 39,000  Level Cleveland Center
Sun 09:55:17 PM 42.3650 -83.1378 95° East 467 537 39,000  Level Cleveland Center
Sun 09:56:17 PM 42.3522 -82.9600 95° East 467 537 39,000  Level Cleveland Center
Sun 09:57:17 PM 42.3411 -82.7828 96° East 467 537 39,000  Level Cleveland Center
Sun 09:58:17 PM 42.3278 -82.6081 96° East 467 537 39,000  Level Cleveland Center
Sun 09:59:17 PM 42.3158 -82.4506 96° East 467 537 39,000  Level Cleveland Center
Sun 10:00:17 PM 42.3019 -82.2731 96° East 467 537 39,000  Level Cleveland Center
Sun 10:01:17 PM 42.2858 -82.0819 96° East 467 537 39,000  Level Cleveland Center
Sun 10:02:17 PM 42.2714 -81.9047 96° East 467 537 39,000  Level Cleveland Center
Sun 10:03:17 PM 42.2586 -81.7306 97° East 467 537 39,000  Level Cleveland Center
Sun 10:04:17 PM 42.2433 -81.5564 97° East 467 537 39,000  Level Cleveland Center
Sun 10:05:17 PM 42.2281 -81.3794 97° East 467 537 39,000  Level Cleveland Center
Sun 10:06:17 PM 42.2125 -81.2056 96° East 467 537 39,000  Level Cleveland Center
Sun 10:07:17 PM 42.1989 -81.0317 98° East 467 537 39,000  Level Cleveland Center
Sun 10:08:17 PM 42.1825 -80.8689 97° East 467 537 39,000  Level Cleveland Center
Sun 10:09:17 PM 42.1664 -80.6897 97° East 473 544 39,000  Level Cleveland Center
Sun 10:10:17 PM 42.1497 -80.5158 97° East 473 544 39,000  Level Cleveland Center
Sun 10:11:17 PM 42.1347 -80.3425 98° East 473 544 39,000  Level Cleveland Center
Sun 10:12:17 PM 42.1156 -80.1661 97° East 473 544 39,000  Level Cleveland Center
Sun 10:13:17 PM 42.0981 -79.9703 97° East 473 544 39,000  Level Cleveland Center
Sun 10:14:17 PM 42.0822 -79.7914 99° East 473 544 39,000  Level Cleveland Center
Sun 10:15:17 PM 42.0622 -79.6156 97° East 478 550 39,000  Level Cleveland Center
Sun 10:16:17 PM 42.0461 -79.4367 98° East 478 550 39,000  Level Cleveland Center
Sun 10:17:17 PM 42.0275 -79.2611 98° East 483 556 39,000  Level Cleveland Center
Sun 10:18:17 PM 42.0086 -79.0853 98° East 483 556 39,000  Level Cleveland Center
Sun 10:19:17 PM 41.9894 -78.9125 98° East 478 550 39,000  Level Cleveland Center
Sun 10:20:17 PM 41.9703 -78.7400 99° East 478 550 39,000  Level Cleveland Center
Sun 10:21:17 PM 41.9506 -78.5675 99° East 473 544 39,000  Level Cleveland Center
Sun 10:23:23 PM 41.9092 -78.2125 99° East 455 524 39,000  Level New York Center
Sun 10:24:24 PM 41.8883 -78.0428 99° East 455 524 39,000 -50 Level New York Center
Sun 10:25:24 PM 41.8689 -77.8792 108° East 448 516 38,900 -850 Descending New York Center
Sun 10:26:24 PM 41.8322 -77.7247 110° East 435 501 37,300 -1,587 Descending New York Center
Sun 10:27:25 PM 41.7947 -77.5844 109° East 410 472 35,700 -1,140 Descending New York Center
Sun 10:28:25 PM 41.7586 -77.4472 110° East 389 448 35,000 -347 Descending New York Center
Sun 10:29:26 PM 41.7206 -77.3075 110° East 394 453 35,000  Level New York Center
Sun 10:30:24 PM 41.6858 -77.1817 108° East 400 460 35,000  Level New York Center
Sun 10:31:24 PM 41.6500 -77.0339 111° Southeast 400 460 35,000  Level New York Center
Sun 10:32:24 PM 41.6092 -76.8942 110° East 400 460 35,000  Level New York Center
Sun 10:33:25 PM 41.5689 -76.7489 111° Southeast 400 460 35,000  Level New York Center
Sun 10:34:25 PM 41.5297 -76.6125 109° East 394 453 35,000  Level New York Center
Sun 10:35:24 PM 41.4928 -76.4708 110° East 399 459 35,000  Level New York Center
Sun 10:36:24 PM 41.4483 -76.3119 111° Southeast 399 459 35,000  Level New York Center
Sun 10:37:25 PM 41.4125 -76.1872 111° Southeast 399 459 35,000 -595 Level New York Center
Sun 10:38:25 PM 41.3675 -76.0317 110° East 406 467 33,800 -1,866 Descending New York Center
Sun 10:39:24 PM 41.3278 -75.8903 112° Southeast 400 460 31,300 -2,450 Descending New York Center
Sun 10:40:25 PM 41.2858 -75.7492 112° Southeast 399 459 28,900 -2,218 Descending New York Center
Sun 10:41:23 PM 41.2439 -75.6081 114° Southeast 405 466 26,900 -2,218 Descending New York Center
Sun 10:42:24 PM 41.1972 -75.4697 114° Southeast 405 466 24,500 -1,918 Descending New York Center
Sun 10:43:25 PM 41.1544 -75.3397 114° Southeast 395 455 23,000 -756 Descending New York Center
Sun 10:44:23 PM 41.1133 -75.2158 114° Southeast 382 440 23,000  Level New York Center
Sun 10:45:23 PM 41.0703 -75.0892 114° Southeast 377 434 23,000  Level New York Center
Sun 10:46:24 PM 41.0289 -74.9656 112° Southeast 377 434 23,000 -100 Level New York Center
Sun 10:47:23 PM 40.9933 -74.8506 98° East 372 428 22,800 -807 Descending New York Center
Sun 10:48:23 PM 40.9789 -74.7178 97° East 367 422 21,400 -1,240 Descending New York Center
Sun 10:49:24 PM 40.9667 -74.5853 104° East 362 417 20,300 -1,041 Descending New York Center
Sun 10:50:24 PM 40.9436 -74.4603 118° Southeast 356 410 19,300 -703 Descending New York Center
Sun 10:51:15 PM 40.9000 -74.3500 123° Southeast 339 390 19,000 -162 Descending New York TRACON
Sun 10:52:15 PM 40.8500 -74.2500 123° Southeast 328 377 19,000 -150 Level New York TRACON
Sun 10:53:15 PM 40.8000 -74.1500 123° Southeast 333 383 18,700 -1,500 Descending New York TRACON
Sun 10:54:15 PM 40.7500 -74.0500 119° Southeast 330 380 16,000 -2,300 Descending New York TRACON
Sun 10:55:15 PM 40.7000 -73.9333 128° Southeast 319 367 14,100 -1,550 Descending New York TRACON
Sun 10:56:15 PM 40.6500 -73.8500 123° Southeast 281 323 12,900 -1,200 Descending New York TRACON
Sun 10:57:15 PM 40.6167 -73.7833 154° Southeast 265 305 11,700 -2,457 Descending New York TRACON
Sun 10:59:23 PM 40.4919 -73.7019 191° South 227 261 5,200 -2,500 Descending New York Center
Sun 11:00:15 PM 40.4333 -73.7167 255° West 209 241 4,200 -1,125 Descending New York TRACON
Sun 11:01:15 PM 40.4167 -73.8000 315° West 259 298 3,100 -1,050 Descending New York TRACON
Sun 11:02:15 PM 40.4667 -73.8667 360° North 262 302 2,100 -600 Descending New York TRACON
Sun 11:03:15 PM 40.5167 -73.8667 37° Northeast 164 189 1,900 -100 Descending New York TRACON
Sun 11:04:15 PM 40.5500 -73.8333 37° Northeast 142 163 1,900  Level New York TRACON

Login

Don't have an account? Register now (free) for customized features, flight alerts, and more!